sensor_id;sensor_type;location;lat;lon;timestamp;temperature;humidity
10447;DHT22;5271;44.422;26.092;2023-05-29T00:00:36;24.70;73.20
10447;DHT22;5271;44.422;26.092;2023-05-29T00:03:04;24.60;73.20
10447;DHT22;5271;44.422;26.092;2023-05-29T00:05:31;24.70;73.20
10447;DHT22;5271;44.422;26.092;2023-05-29T00:07:57;24.60;73.10
10447;DHT22;5271;44.422;26.092;2023-05-29T00:10:25;24.60;73.10
10447;DHT22;5271;44.422;26.092;2023-05-29T00:12:52;24.60;73.00
10447;DHT22;5271;44.422;26.092;2023-05-29T00:15:19;24.60;73.00
10447;DHT22;5271;44.422;26.092;2023-05-29T00:17:46;24.70;73.00
10447;DHT22;5271;44.422;26.092;2023-05-29T00:20:14;24.70;73.00
10447;DHT22;5271;44.422;26.092;2023-05-29T00:22:41;24.70;73.20
10447;DHT22;5271;44.422;26.092;2023-05-29T00:25:08;24.60;73.40
10447;DHT22;5271;44.422;26.092;2023-05-29T00:27:35;24.60;73.70
10447;DHT22;5271;44.422;26.092;2023-05-29T00:30:03;24.60;73.60
10447;DHT22;5271;44.422;26.092;2023-05-29T00:32:30;24.60;73.70
10447;DHT22;5271;44.422;26.092;2023-05-29T00:34:57;24.50;73.80
10447;DHT22;5271;44.422;26.092;2023-05-29T00:37:25;24.30;74.00
10447;DHT22;5271;44.422;26.092;2023-05-29T00:39:52;24.20;74.00
10447;DHT22;5271;44.422;26.092;2023-05-29T00:42:19;24.20;74.00
10447;DHT22;5271;44.422;26.092;2023-05-29T00:44:46;24.20;73.90
10447;DHT22;5271;44.422;26.092;2023-05-29T00:47:13;24.20;73.90
10447;DHT22;5271;44.422;26.092;2023-05-29T00:49:40;24.30;73.90
10447;DHT22;5271;44.422;26.092;2023-05-29T00:52:07;24.20;74.40
10447;DHT22;5271;44.422;26.092;2023-05-29T00:54:37;24.20;73.90
10447;DHT22;5271;44.422;26.092;2023-05-29T00:57:04;24.30;73.80
10447;DHT22;5271;44.422;26.092;2023-05-29T00:59:33;24.20;73.70
10447;DHT22;5271;44.422;26.092;2023-05-29T01:02:01;24.20;73.80
10447;DHT22;5271;44.422;26.092;2023-05-29T01:04:28;24.30;73.80
10447;DHT22;5271;44.422;26.092;2023-05-29T01:06:59;24.30;73.80
10447;DHT22;5271;44.422;26.092;2023-05-29T01:09:28;24.30;73.80
10447;DHT22;5271;44.422;26.092;2023-05-29T01:12:02;24.30;73.90
10447;DHT22;5271;44.422;26.092;2023-05-29T01:14:37;24.30;74.10
10447;DHT22;5271;44.422;26.092;2023-05-29T01:17:10;24.30;74.30
10447;DHT22;5271;44.422;26.092;2023-05-29T01:19:58;24.30;74.20
10447;DHT22;5271;44.422;26.092;2023-05-29T01:22:35;24.30;74.70
10447;DHT22;5271;44.422;26.092;2023-05-29T01:25:11;24.10;75.10
10447;DHT22;5271;44.422;26.092;2023-05-29T01:27:45;24.00;76.10
10447;DHT22;5271;44.422;26.092;2023-05-29T01:30:14;23.90;76.20
10447;DHT22;5271;44.422;26.092;2023-05-29T01:32:42;23.80;76.50
10447;DHT22;5271;44.422;26.092;2023-05-29T01:35:09;23.70;77.10
10447;DHT22;5271;44.422;26.092;2023-05-29T01:37:36;23.70;77.60
10447;DHT22;5271;44.422;26.092;2023-05-29T01:40:03;23.70;77.70
10447;DHT22;5271;44.422;26.092;2023-05-29T01:42:30;23.60;78.30
10447;DHT22;5271;44.422;26.092;2023-05-29T01:45:00;23.50;79.20
10447;DHT22;5271;44.422;26.092;2023-05-29T01:47:27;23.40;79.40
10447;DHT22;5271;44.422;26.092;2023-05-29T01:49:54;23.40;80.80
10447;DHT22;5271;44.422;26.092;2023-05-29T01:52:22;23.30;80.30
10447;DHT22;5271;44.422;26.092;2023-05-29T01:54:49;23.30;80.70
10447;DHT22;5271;44.422;26.092;2023-05-29T01:57:16;23.20;80.80
10447;DHT22;5271;44.422;26.092;2023-05-29T01:59:43;23.10;81.40
10447;DHT22;5271;44.422;26.092;2023-05-29T02:02:12;23.00;81.30
10447;DHT22;5271;44.422;26.092;2023-05-29T02:04:38;23.00;81.50
10447;DHT22;5271;44.422;26.092;2023-05-29T02:07:05;22.90;81.50
10447;DHT22;5271;44.422;26.092;2023-05-29T02:09:33;22.80;81.50
10447;DHT22;5271;44.422;26.092;2023-05-29T02:12:01;22.80;81.60
10447;DHT22;5271;44.422;26.092;2023-05-29T02:14:28;22.80;81.60
10447;DHT22;5271;44.422;26.092;2023-05-29T02:16:54;22.70;81.80
10447;DHT22;5271;44.422;26.092;2023-05-29T02:19:24;22.70;81.70
10447;DHT22;5271;44.422;26.092;2023-05-29T02:21:52;22.70;82.00
10447;DHT22;5271;44.422;26.092;2023-05-29T02:24:19;22.80;81.80
10447;DHT22;5271;44.422;26.092;2023-05-29T02:26:47;22.70;81.90
10447;DHT22;5271;44.422;26.092;2023-05-29T02:29:14;22.80;81.90
10447;DHT22;5271;44.422;26.092;2023-05-29T02:31:41;22.80;81.60
10447;DHT22;5271;44.422;26.092;2023-05-29T02:34:08;22.80;81.60
10447;DHT22;5271;44.422;26.092;2023-05-29T02:36:36;22.80;81.60
10447;DHT22;5271;44.422;26.092;2023-05-29T02:39:04;22.80;81.80
10447;DHT22;5271;44.422;26.092;2023-05-29T02:41:31;22.70;81.60
10447;DHT22;5271;44.422;26.092;2023-05-29T02:43:58;22.80;81.50
10447;DHT22;5271;44.422;26.092;2023-05-29T02:46:25;22.70;81.40
10447;DHT22;5271;44.422;26.092;2023-05-29T02:48:52;22.70;81.30
10447;DHT22;5271;44.422;26.092;2023-05-29T02:51:18;22.70;81.50
10447;DHT22;5271;44.422;26.092;2023-05-29T02:53:47;22.70;81.60
10447;DHT22;5271;44.422;26.092;2023-05-29T02:56:14;22.60;81.40
10447;DHT22;5271;44.422;26.092;2023-05-29T02:58:42;22.70;81.30
10447;DHT22;5271;44.422;26.092;2023-05-29T03:01:09;22.70;81.20
10447;DHT22;5271;44.422;26.092;2023-05-29T03:03:36;22.80;81.00
10447;DHT22;5271;44.422;26.092;2023-05-29T03:06:03;22.70;80.80
10447;DHT22;5271;44.422;26.092;2023-05-29T03:08:31;22.70;80.80
10447;DHT22;5271;44.422;26.092;2023-05-29T03:11:00;22.70;81.10
10447;DHT22;5271;44.422;26.092;2023-05-29T03:13:28;22.70;81.20
10447;DHT22;5271;44.422;26.092;2023-05-29T03:15:55;22.70;81.20
10447;DHT22;5271;44.422;26.092;2023-05-29T03:18:22;22.70;81.30
10447;DHT22;5271;44.422;26.092;2023-05-29T03:20:49;22.60;81.40
10447;DHT22;5271;44.422;26.092;2023-05-29T03:23:16;22.50;81.50
10447;DHT22;5271;44.422;26.092;2023-05-29T03:25:43;22.50;81.80
10447;DHT22;5271;44.422;26.092;2023-05-29T03:28:11;22.40;81.90
10447;DHT22;5271;44.422;26.092;2023-05-29T03:30:38;22.30;82.20
10447;DHT22;5271;44.422;26.092;2023-05-29T03:33:04;22.30;82.60
10447;DHT22;5271;44.422;26.092;2023-05-29T03:35:32;22.30;82.60
10447;DHT22;5271;44.422;26.092;2023-05-29T03:37:58;22.40;82.30
10447;DHT22;5271;44.422;26.092;2023-05-29T03:40:25;22.40;81.40
10447;DHT22;5271;44.422;26.092;2023-05-29T03:42:52;22.30;81.00
10447;DHT22;5271;44.422;26.092;2023-05-29T03:45:20;22.30;80.40
10447;DHT22;5271;44.422;26.092;2023-05-29T03:47:47;22.30;80.20
10447;DHT22;5271;44.422;26.092;2023-05-29T03:50:14;22.30;79.70
10447;DHT22;5271;44.422;26.092;2023-05-29T03:52:41;22.20;79.70
10447;DHT22;5271;44.422;26.092;2023-05-29T03:55:09;22.20;79.40
10447;DHT22;5271;44.422;26.092;2023-05-29T03:57:38;22.10;79.20
10447;DHT22;5271;44.422;26.092;2023-05-29T04:00:07;22.10;79.00
10447;DHT22;5271;44.422;26.092;2023-05-29T04:02:37;22.10;78.80
10447;DHT22;5271;44.422;26.092;2023-05-29T04:05:05;22.00;78.70
10447;DHT22;5271;44.422;26.092;2023-05-29T04:07:32;22.00;78.70
10447;DHT22;5271;44.422;26.092;2023-05-29T04:09:59;21.90;78.50
10447;DHT22;5271;44.422;26.092;2023-05-29T04:12:25;21.90;78.30
10447;DHT22;5271;44.422;26.092;2023-05-29T04:14:52;21.80;78.30
10447;DHT22;5271;44.422;26.092;2023-05-29T04:17:19;21.80;78.20
10447;DHT22;5271;44.422;26.092;2023-05-29T04:19:48;21.70;77.70
10447;DHT22;5271;44.422;26.092;2023-05-29T04:22:15;21.60;77.60
10447;DHT22;5271;44.422;26.092;2023-05-29T04:24:41;21.50;77.40
10447;DHT22;5271;44.422;26.092;2023-05-29T04:27:08;21.40;77.60
10447;DHT22;5271;44.422;26.092;2023-05-29T04:29:38;21.30;77.70
10447;DHT22;5271;44.422;26.092;2023-05-29T04:32:06;21.30;78.00
10447;DHT22;5271;44.422;26.092;2023-05-29T04:34:34;21.20;78.00
10447;DHT22;5271;44.422;26.092;2023-05-29T04:37:02;21.20;78.00
10447;DHT22;5271;44.422;26.092;2023-05-29T04:39:29;21.30;78.00
10447;DHT22;5271;44.422;26.092;2023-05-29T04:41:56;21.30;77.70
10447;DHT22;5271;44.422;26.092;2023-05-29T04:44:24;21.20;77.80
10447;DHT22;5271;44.422;26.092;2023-05-29T04:46:52;21.10;79.20
10447;DHT22;5271;44.422;26.092;2023-05-29T04:49:19;21.20;80.00
10447;DHT22;5271;44.422;26.092;2023-05-29T04:51:47;21.20;80.40
10447;DHT22;5271;44.422;26.092;2023-05-29T04:54:15;21.30;79.90
10447;DHT22;5271;44.422;26.092;2023-05-29T04:56:45;21.30;79.60
10447;DHT22;5271;44.422;26.092;2023-05-29T04:59:11;21.20;79.80
10447;DHT22;5271;44.422;26.092;2023-05-29T05:01:38;21.30;79.40
10447;DHT22;5271;44.422;26.092;2023-05-29T05:04:08;21.50;79.10
10447;DHT22;5271;44.422;26.092;2023-05-29T05:06:35;21.60;78.70
10447;DHT22;5271;44.422;26.092;2023-05-29T05:09:03;21.60;78.30
10447;DHT22;5271;44.422;26.092;2023-05-29T05:11:31;21.70;78.40
10447;DHT22;5271;44.422;26.092;2023-05-29T05:13:58;21.70;78.30
10447;DHT22;5271;44.422;26.092;2023-05-29T05:16:25;21.80;77.90
10447;DHT22;5271;44.422;26.092;2023-05-29T05:18:51;21.90;77.60
10447;DHT22;5271;44.422;26.092;2023-05-29T05:21:18;21.90;77.40
10447;DHT22;5271;44.422;26.092;2023-05-29T05:23:45;22.10;77.00
10447;DHT22;5271;44.422;26.092;2023-05-29T05:26:12;22.10;77.10
10447;DHT22;5271;44.422;26.092;2023-05-29T05:28:41;22.10;77.00
10447;DHT22;5271;44.422;26.092;2023-05-29T05:31:08;22.20;77.30
10447;DHT22;5271;44.422;26.092;2023-05-29T05:33:35;22.30;77.20
10447;DHT22;5271;44.422;26.092;2023-05-29T05:36:02;22.20;76.80
10447;DHT22;5271;44.422;26.092;2023-05-29T05:38:29;22.10;76.70
10447;DHT22;5271;44.422;26.092;2023-05-29T05:40:56;22.10;77.00
10447;DHT22;5271;44.422;26.092;2023-05-29T05:43:22;22.00;76.60
10447;DHT22;5271;44.422;26.092;2023-05-29T05:45:53;22.00;76.80
10447;DHT22;5271;44.422;26.092;2023-05-29T05:48:20;22.00;77.10
10447;DHT22;5271;44.422;26.092;2023-05-29T05:50:47;22.00;77.10
10447;DHT22;5271;44.422;26.092;2023-05-29T05:53:14;22.00;77.10
10447;DHT22;5271;44.422;26.092;2023-05-29T05:55:42;22.10;76.90
10447;DHT22;5271;44.422;26.092;2023-05-29T05:58:09;22.00;76.80
10447;DHT22;5271;44.422;26.092;2023-05-29T06:00:36;22.00;77.00
10447;DHT22;5271;44.422;26.092;2023-05-29T06:03:04;21.90;77.00
10447;DHT22;5271;44.422;26.092;2023-05-29T06:05:31;21.90;77.30
10447;DHT22;5271;44.422;26.092;2023-05-29T06:07:59;21.80;77.40
10447;DHT22;5271;44.422;26.092;2023-05-29T06:10:26;21.80;77.50
10447;DHT22;5271;44.422;26.092;2023-05-29T06:12:53;21.90;77.20
10447;DHT22;5271;44.422;26.092;2023-05-29T06:15:20;22.00;77.20
10447;DHT22;5271;44.422;26.092;2023-05-29T06:17:47;22.10;77.10
10447;DHT22;5271;44.422;26.092;2023-05-29T06:20:25;22.10;76.60
10447;DHT22;5271;44.422;26.092;2023-05-29T06:22:52;22.10;76.30
10447;DHT22;5271;44.422;26.092;2023-05-29T06:25:19;22.10;76.20
10447;DHT22;5271;44.422;26.092;2023-05-29T06:27:47;22.00;76.40
10447;DHT22;5271;44.422;26.092;2023-05-29T06:30:14;22.10;76.60
10447;DHT22;5271;44.422;26.092;2023-05-29T06:32:41;22.10;76.30
10447;DHT22;5271;44.422;26.092;2023-05-29T06:35:08;22.10;76.00
10447;DHT22;5271;44.422;26.092;2023-05-29T06:37:36;21.90;75.80
10447;DHT22;5271;44.422;26.092;2023-05-29T06:40:04;21.80;76.40
10447;DHT22;5271;44.422;26.092;2023-05-29T06:42:31;21.80;76.80
10447;DHT22;5271;44.422;26.092;2023-05-29T06:44:58;21.70;77.00
10447;DHT22;5271;44.422;26.092;2023-05-29T06:47:25;21.70;76.80
10447;DHT22;5271;44.422;26.092;2023-05-29T06:49:52;21.80;76.60
10447;DHT22;5271;44.422;26.092;2023-05-29T06:52:19;21.80;76.20
10447;DHT22;5271;44.422;26.092;2023-05-29T06:54:47;21.80;76.10
10447;DHT22;5271;44.422;26.092;2023-05-29T06:57:14;21.80;76.00
10447;DHT22;5271;44.422;26.092;2023-05-29T06:59:41;21.80;76.00
10447;DHT22;5271;44.422;26.092;2023-05-29T07:02:08;21.80;76.10
10447;DHT22;5271;44.422;26.092;2023-05-29T07:04:35;21.90;75.90
10447;DHT22;5271;44.422;26.092;2023-05-29T07:07:02;21.90;75.70
10447;DHT22;5271;44.422;26.092;2023-05-29T07:09:28;22.20;76.30
10447;DHT22;5271;44.422;26.092;2023-05-29T07:11:57;22.70;75.50
10447;DHT22;5271;44.422;26.092;2023-05-29T07:14:23;23.20;74.10
10447;DHT22;5271;44.422;26.092;2023-05-29T07:16:50;23.60;73.10
10447;DHT22;5271;44.422;26.092;2023-05-29T07:19:17;24.10;71.90
10447;DHT22;5271;44.422;26.092;2023-05-29T07:21:44;24.40;70.90
10447;DHT22;5271;44.422;26.092;2023-05-29T07:24:11;24.80;70.80
10447;DHT22;5271;44.422;26.092;2023-05-29T07:26:38;24.90;69.50
10447;DHT22;5271;44.422;26.092;2023-05-29T07:29:06;24.90;70.00
10447;DHT22;5271;44.422;26.092;2023-05-29T07:31:33;24.80;69.60
10447;DHT22;5271;44.422;26.092;2023-05-29T07:34:01;24.60;70.20
10447;DHT22;5271;44.422;26.092;2023-05-29T07:36:29;24.50;70.00
10447;DHT22;5271;44.422;26.092;2023-05-29T07:38:57;24.40;70.50
10447;DHT22;5271;44.422;26.092;2023-05-29T07:41:24;24.30;70.70
10447;DHT22;5271;44.422;26.092;2023-05-29T07:43:52;24.20;70.90
10447;DHT22;5271;44.422;26.092;2023-05-29T07:46:22;24.10;71.20
10447;DHT22;5271;44.422;26.092;2023-05-29T07:48:49;24.10;70.90
10447;DHT22;5271;44.422;26.092;2023-05-29T07:51:16;24.10;70.90
10447;DHT22;5271;44.422;26.092;2023-05-29T07:53:44;24.10;71.10
10447;DHT22;5271;44.422;26.092;2023-05-29T07:56:11;24.00;71.10
10447;DHT22;5271;44.422;26.092;2023-05-29T07:58:39;23.90;71.00
10447;DHT22;5271;44.422;26.092;2023-05-29T08:01:06;23.90;70.90
10447;DHT22;5271;44.422;26.092;2023-05-29T08:03:35;23.90;71.40
10447;DHT22;5271;44.422;26.092;2023-05-29T08:06:02;23.80;71.90
10447;DHT22;5271;44.422;26.092;2023-05-29T08:08:29;23.80;72.10
10447;DHT22;5271;44.422;26.092;2023-05-29T08:10:57;24.00;72.10
10447;DHT22;5271;44.422;26.092;2023-05-29T08:13:24;24.10;71.70
10447;DHT22;5271;44.422;26.092;2023-05-29T08:15:50;24.20;71.60
10447;DHT22;5271;44.422;26.092;2023-05-29T08:18:17;24.30;71.70
10447;DHT22;5271;44.422;26.092;2023-05-29T08:20:45;24.40;71.20
10447;DHT22;5271;44.422;26.092;2023-05-29T08:23:12;24.50;70.80
10447;DHT22;5271;44.422;26.092;2023-05-29T08:25:40;24.50;71.00
10447;DHT22;5271;44.422;26.092;2023-05-29T08:28:07;24.50;70.80
10447;DHT22;5271;44.422;26.092;2023-05-29T08:30:33;24.60;70.80
10447;DHT22;5271;44.422;26.092;2023-05-29T08:33:00;24.60;70.50
10447;DHT22;5271;44.422;26.092;2023-05-29T08:35:27;24.70;70.10
10447;DHT22;5271;44.422;26.092;2023-05-29T08:37:55;24.80;70.30
10447;DHT22;5271;44.422;26.092;2023-05-29T08:40:22;25.00;70.00
10447;DHT22;5271;44.422;26.092;2023-05-29T08:42:56;25.10;69.60
10447;DHT22;5271;44.422;26.092;2023-05-29T08:45:24;25.20;68.70
10447;DHT22;5271;44.422;26.092;2023-05-29T08:47:52;25.20;69.00
10447;DHT22;5271;44.422;26.092;2023-05-29T08:50:21;25.30;68.70
10447;DHT22;5271;44.422;26.092;2023-05-29T08:52:49;25.40;68.60
10447;DHT22;5271;44.422;26.092;2023-05-29T08:55:18;25.50;68.40
10447;DHT22;5271;44.422;26.092;2023-05-29T08:57:45;25.50;68.40
10447;DHT22;5271;44.422;26.092;2023-05-29T09:00:12;25.60;68.40
10447;DHT22;5271;44.422;26.092;2023-05-29T09:02:41;25.70;68.20
10447;DHT22;5271;44.422;26.092;2023-05-29T09:05:09;25.70;67.70
10447;DHT22;5271;44.422;26.092;2023-05-29T09:07:38;25.70;67.60
10447;DHT22;5271;44.422;26.092;2023-05-29T09:10:05;25.80;67.40
10447;DHT22;5271;44.422;26.092;2023-05-29T09:12:34;25.80;67.60
10447;DHT22;5271;44.422;26.092;2023-05-29T09:15:02;25.80;67.50
10447;DHT22;5271;44.422;26.092;2023-05-29T09:17:31;26.00;67.60
10447;DHT22;5271;44.422;26.092;2023-05-29T09:19:58;26.00;67.20
10447;DHT22;5271;44.422;26.092;2023-05-29T09:22:26;26.10;67.70
10447;DHT22;5271;44.422;26.092;2023-05-29T09:24:52;26.30;67.50
10447;DHT22;5271;44.422;26.092;2023-05-29T09:27:21;26.40;66.80
10447;DHT22;5271;44.422;26.092;2023-05-29T09:29:49;26.50;66.90
10447;DHT22;5271;44.422;26.092;2023-05-29T09:32:17;26.50;66.90
10447;DHT22;5271;44.422;26.092;2023-05-29T09:34:45;26.70;67.00
10447;DHT22;5271;44.422;26.092;2023-05-29T09:37:12;26.80;66.20
10447;DHT22;5271;44.422;26.092;2023-05-29T09:39:48;26.80;66.00
10447;DHT22;5271;44.422;26.092;2023-05-29T09:42:15;26.80;65.30
10447;DHT22;5271;44.422;26.092;2023-05-29T09:44:44;26.80;65.50
10447;DHT22;5271;44.422;26.092;2023-05-29T09:47:16;26.90;65.30
10447;DHT22;5271;44.422;26.092;2023-05-29T09:49:44;26.80;64.80
10447;DHT22;5271;44.422;26.092;2023-05-29T09:52:12;26.80;65.00
10447;DHT22;5271;44.422;26.092;2023-05-29T09:54:42;26.80;65.10
10447;DHT22;5271;44.422;26.092;2023-05-29T09:57:12;26.90;64.50
10447;DHT22;5271;44.422;26.092;2023-05-29T09:59:39;26.90;64.40
10447;DHT22;5271;44.422;26.092;2023-05-29T10:02:10;27.00;65.10
10447;DHT22;5271;44.422;26.092;2023-05-29T10:04:40;26.90;63.90
10447;DHT22;5271;44.422;26.092;2023-05-29T10:07:12;26.90;62.90
10447;DHT22;5271;44.422;26.092;2023-05-29T10:09:44;26.80;63.20
10447;DHT22;5271;44.422;26.092;2023-05-29T10:12:17;26.90;63.00
10447;DHT22;5271;44.422;26.092;2023-05-29T10:14:48;26.90;63.00
10447;DHT22;5271;44.422;26.092;2023-05-29T10:17:18;26.80;63.50
10447;DHT22;5271;44.422;26.092;2023-05-29T10:19:49;26.80;64.00
10447;DHT22;5271;44.422;26.092;2023-05-29T10:22:17;26.90;63.70
10447;DHT22;5271;44.422;26.092;2023-05-29T10:24:47;26.90;66.00
10447;DHT22;5271;44.422;26.092;2023-05-29T10:27:15;27.00;63.00
10447;DHT22;5271;44.422;26.092;2023-05-29T10:29:48;26.90;63.50
10447;DHT22;5271;44.422;26.092;2023-05-29T10:32:23;27.00;64.40
10447;DHT22;5271;44.422;26.092;2023-05-29T10:34:58;27.10;64.40
10447;DHT22;5271;44.422;26.092;2023-05-29T10:37:33;27.20;64.40
10447;DHT22;5271;44.422;26.092;2023-05-29T10:40:04;27.30;63.40
10447;DHT22;5271;44.422;26.092;2023-05-29T10:42:43;27.40;63.50
10447;DHT22;5271;44.422;26.092;2023-05-29T10:45:10;27.50;63.50
10447;DHT22;5271;44.422;26.092;2023-05-29T10:47:38;27.60;63.50
10447;DHT22;5271;44.422;26.092;2023-05-29T10:50:06;27.60;62.50
10447;DHT22;5271;44.422;26.092;2023-05-29T10:52:33;27.40;61.80
10447;DHT22;5271;44.422;26.092;2023-05-29T10:55:01;27.40;62.30
10447;DHT22;5271;44.422;26.092;2023-05-29T10:57:30;27.30;62.20
10447;DHT22;5271;44.422;26.092;2023-05-29T11:00:06;27.30;62.70
10447;DHT22;5271;44.422;26.092;2023-05-29T11:02:38;27.30;62.50
10447;DHT22;5271;44.422;26.092;2023-05-29T11:05:21;27.30;62.80
10447;DHT22;5271;44.422;26.092;2023-05-29T11:08:06;27.30;61.60
10447;DHT22;5271;44.422;26.092;2023-05-29T11:10:44;27.20;61.90
10447;DHT22;5271;44.422;26.092;2023-05-29T11:13:23;27.20;61.90
10447;DHT22;5271;44.422;26.092;2023-05-29T11:16:05;27.20;62.10
10447;DHT22;5271;44.422;26.092;2023-05-29T11:18:38;27.30;61.90
10447;DHT22;5271;44.422;26.092;2023-05-29T11:23:58;27.20;62.20
10447;DHT22;5271;44.422;26.092;2023-05-29T11:26:28;27.20;61.40
10447;DHT22;5271;44.422;26.092;2023-05-29T11:28:58;27.30;61.20
10447;DHT22;5271;44.422;26.092;2023-05-29T11:31:25;27.20;61.80
10447;DHT22;5271;44.422;26.092;2023-05-29T11:33:54;27.20;62.40
10447;DHT22;5271;44.422;26.092;2023-05-29T11:36:27;27.30;62.50
10447;DHT22;5271;44.422;26.092;2023-05-29T11:38:54;27.30;61.90
10447;DHT22;5271;44.422;26.092;2023-05-29T11:41:21;27.30;61.70
10447;DHT22;5271;44.422;26.092;2023-05-29T11:43:56;27.30;62.00
10447;DHT22;5271;44.422;26.092;2023-05-29T11:46:24;27.30;62.50
10447;DHT22;5271;44.422;26.092;2023-05-29T11:48:52;27.30;62.20
10447;DHT22;5271;44.422;26.092;2023-05-29T11:51:19;27.30;62.90
10447;DHT22;5271;44.422;26.092;2023-05-29T11:53:48;27.30;61.00
10447;DHT22;5271;44.422;26.092;2023-05-29T11:56:18;27.30;61.30
10447;DHT22;5271;44.422;26.092;2023-05-29T11:58:46;27.20;60.60
10447;DHT22;5271;44.422;26.092;2023-05-29T12:01:16;27.20;60.80
10447;DHT22;5271;44.422;26.092;2023-05-29T12:03:44;27.30;61.50
10447;DHT22;5271;44.422;26.092;2023-05-29T12:06:11;27.20;61.30
10447;DHT22;5271;44.422;26.092;2023-05-29T12:08:38;27.20;62.40
10447;DHT22;5271;44.422;26.092;2023-05-29T12:11:08;27.20;62.20
10447;DHT22;5271;44.422;26.092;2023-05-29T12:13:35;27.10;60.30
10447;DHT22;5271;44.422;26.092;2023-05-29T12:16:04;27.10;62.00
10447;DHT22;5271;44.422;26.092;2023-05-29T12:18:32;27.10;61.70
10447;DHT22;5271;44.422;26.092;2023-05-29T12:21:01;27.00;62.10
10447;DHT22;5271;44.422;26.092;2023-05-29T12:23:28;27.00;61.30
10447;DHT22;5271;44.422;26.092;2023-05-29T12:25:55;27.00;60.70
10447;DHT22;5271;44.422;26.092;2023-05-29T12:28:25;27.00;61.30
10447;DHT22;5271;44.422;26.092;2023-05-29T12:30:58;27.10;61.60
10447;DHT22;5271;44.422;26.092;2023-05-29T12:33:29;27.00;61.20
10447;DHT22;5271;44.422;26.092;2023-05-29T12:36:02;27.00;61.20
10447;DHT22;5271;44.422;26.092;2023-05-29T12:38:29;27.00;61.20
10447;DHT22;5271;44.422;26.092;2023-05-29T12:40:56;27.00;61.70
10447;DHT22;5271;44.422;26.092;2023-05-29T12:43:24;26.90;62.10
10447;DHT22;5271;44.422;26.092;2023-05-29T12:45:54;26.90;62.20
10447;DHT22;5271;44.422;26.092;2023-05-29T12:48:26;26.90;63.50
10447;DHT22;5271;44.422;26.092;2023-05-29T12:50:53;26.90;62.80
10447;DHT22;5271;44.422;26.092;2023-05-29T12:53:20;27.00;61.40
10447;DHT22;5271;44.422;26.092;2023-05-29T12:55:47;27.10;61.90
10447;DHT22;5271;44.422;26.092;2023-05-29T12:58:16;27.10;61.90
10447;DHT22;5271;44.422;26.092;2023-05-29T13:00:45;27.10;61.10
10447;DHT22;5271;44.422;26.092;2023-05-29T13:03:12;27.10;61.50
10447;DHT22;5271;44.422;26.092;2023-05-29T13:05:40;27.10;60.90
10447;DHT22;5271;44.422;26.092;2023-05-29T13:08:07;27.10;60.70
10447;DHT22;5271;44.422;26.092;2023-05-29T13:10:34;27.10;60.80
10447;DHT22;5271;44.422;26.092;2023-05-29T13:13:01;27.00;61.00
10447;DHT22;5271;44.422;26.092;2023-05-29T13:15:28;27.00;60.80
10447;DHT22;5271;44.422;26.092;2023-05-29T13:17:57;27.00;60.80
10447;DHT22;5271;44.422;26.092;2023-05-29T13:20:24;27.00;61.40
10447;DHT22;5271;44.422;26.092;2023-05-29T13:22:51;27.00;62.70
10447;DHT22;5271;44.422;26.092;2023-05-29T13:25:19;27.10;62.70
10447;DHT22;5271;44.422;26.092;2023-05-29T13:27:47;27.20;62.30
10447;DHT22;5271;44.422;26.092;2023-05-29T13:30:15;27.20;61.80
10447;DHT22;5271;44.422;26.092;2023-05-29T13:32:42;27.30;62.00
10447;DHT22;5271;44.422;26.092;2023-05-29T13:35:11;27.30;61.70
10447;DHT22;5271;44.422;26.092;2023-05-29T13:37:38;27.20;59.00
10447;DHT22;5271;44.422;26.092;2023-05-29T13:40:06;27.20;59.90
10447;DHT22;5271;44.422;26.092;2023-05-29T13:42:34;27.20;59.60
10447;DHT22;5271;44.422;26.092;2023-05-29T13:45:01;27.20;59.70
10447;DHT22;5271;44.422;26.092;2023-05-29T13:47:29;27.10;60.60
10447;DHT22;5271;44.422;26.092;2023-05-29T13:49:57;27.20;61.40
10447;DHT22;5271;44.422;26.092;2023-05-29T13:52:26;27.20;61.40
10447;DHT22;5271;44.422;26.092;2023-05-29T13:54:53;27.20;62.40
10447;DHT22;5271;44.422;26.092;2023-05-29T13:57:20;27.20;62.30
10447;DHT22;5271;44.422;26.092;2023-05-29T13:59:47;27.20;62.60
10447;DHT22;5271;44.422;26.092;2023-05-29T14:02:14;27.30;62.90
10447;DHT22;5271;44.422;26.092;2023-05-29T14:04:41;27.40;63.40
10447;DHT22;5271;44.422;26.092;2023-05-29T14:07:09;27.30;63.50
10447;DHT22;5271;44.422;26.092;2023-05-29T14:09:37;27.40;64.10
10447;DHT22;5271;44.422;26.092;2023-05-29T14:12:04;27.40;63.20
10447;DHT22;5271;44.422;26.092;2023-05-29T14:14:33;27.40;63.00
10447;DHT22;5271;44.422;26.092;2023-05-29T14:17:00;27.40;62.70
10447;DHT22;5271;44.422;26.092;2023-05-29T14:19:28;27.50;63.00
10447;DHT22;5271;44.422;26.092;2023-05-29T14:21:54;27.40;63.40
10447;DHT22;5271;44.422;26.092;2023-05-29T14:24:21;27.40;63.20
10447;DHT22;5271;44.422;26.092;2023-05-29T14:26:51;27.40;62.90
10447;DHT22;5271;44.422;26.092;2023-05-29T14:29:18;27.40;62.70
10447;DHT22;5271;44.422;26.092;2023-05-29T14:31:45;27.40;62.90
10447;DHT22;5271;44.422;26.092;2023-05-29T14:34:12;27.50;63.10
10447;DHT22;5271;44.422;26.092;2023-05-29T14:36:39;27.50;63.10
10447;DHT22;5271;44.422;26.092;2023-05-29T14:39:07;27.50;63.10
10447;DHT22;5271;44.422;26.092;2023-05-29T14:41:33;27.50;63.70
10447;DHT22;5271;44.422;26.092;2023-05-29T14:44:02;27.50;64.00
10447;DHT22;5271;44.422;26.092;2023-05-29T14:46:29;27.50;64.90
10447;DHT22;5271;44.422;26.092;2023-05-29T14:48:57;27.60;64.00
10447;DHT22;5271;44.422;26.092;2023-05-29T14:51:25;27.50;64.00
10447;DHT22;5271;44.422;26.092;2023-05-29T14:53:51;27.60;64.40
10447;DHT22;5271;44.422;26.092;2023-05-29T14:56:19;27.60;64.10
10447;DHT22;5271;44.422;26.092;2023-05-29T14:58:46;27.60;64.60
10447;DHT22;5271;44.422;26.092;2023-05-29T15:01:15;27.60;64.80
10447;DHT22;5271;44.422;26.092;2023-05-29T15:03:41;27.70;64.30
10447;DHT22;5271;44.422;26.092;2023-05-29T15:06:09;27.70;64.70
10447;DHT22;5271;44.422;26.092;2023-05-29T15:08:37;27.80;64.30
10447;DHT22;5271;44.422;26.092;2023-05-29T15:11:05;27.80;64.00
10447;DHT22;5271;44.422;26.092;2023-05-29T15:13:33;27.80;64.30
10447;DHT22;5271;44.422;26.092;2023-05-29T15:16:00;27.80;64.00
10447;DHT22;5271;44.422;26.092;2023-05-29T15:18:30;27.80;63.70
10447;DHT22;5271;44.422;26.092;2023-05-29T15:20:57;27.80;63.80
10447;DHT22;5271;44.422;26.092;2023-05-29T15:23:24;27.80;63.60
10447;DHT22;5271;44.422;26.092;2023-05-29T15:25:51;27.80;64.00
10447;DHT22;5271;44.422;26.092;2023-05-29T15:28:18;27.80;63.80
10447;DHT22;5271;44.422;26.092;2023-05-29T15:30:45;27.80;63.60
10447;DHT22;5271;44.422;26.092;2023-05-29T15:33:13;27.80;64.50
10447;DHT22;5271;44.422;26.092;2023-05-29T15:35:41;27.80;63.80
10447;DHT22;5271;44.422;26.092;2023-05-29T15:38:08;27.90;63.50